createdAt,value
2019-01-16T00:00:50.029Z,4.67
2019-01-16T00:03:59.985Z,3.87
2019-01-16T00:07:00.179Z,4.12
2019-01-16T00:10:22.184Z,6.75
2019-01-16T00:13:25.741Z,6.95
2019-01-16T00:16:25.706Z,5.15
2019-01-16T00:19:38.729Z,7.05
2019-01-16T00:22:51.757Z,7.00
2019-01-16T00:26:06.315Z,5.10
2019-01-16T00:29:10.890Z,5.00
2019-01-16T00:32:27.243Z,5.10
2019-01-16T00:35:30.027Z,3.80
2019-01-16T00:38:46.122Z,3.62
2019-01-16T00:42:05.809Z,4.42
2019-01-16T00:45:08.588Z,4.12
2019-01-16T00:48:13.415Z,3.47
2019-01-16T00:51:29.516Z,4.08
2019-01-16T00:54:28.713Z,3.50
2019-01-16T00:57:45.321Z,3.33
2019-01-16T01:00:50.676Z,3.02
2019-01-16T01:04:09.835Z,3.02
2019-01-16T01:07:13.643Z,3.52
2019-01-16T01:10:27.946Z,3.62
2019-01-16T01:13:43.791Z,2.80
2019-01-16T01:16:47.136Z,3.27
2019-01-16T01:19:51.148Z,3.17
2019-01-16T01:23:07.494Z,3.25
2019-01-16T01:26:13.105Z,4.08
2019-01-16T01:29:18.185Z,3.85
2019-01-16T01:32:17.179Z,3.00
2019-01-16T01:35:24.008Z,4.75
2019-01-16T01:38:26.537Z,2.27
2019-01-16T01:41:36.490Z,2.58
2019-01-16T01:44:49.772Z,2.47
2019-01-16T01:47:57.418Z,2.35
2019-01-16T01:51:11.900Z,2.25
2019-01-16T01:54:15.024Z,2.72
2019-01-16T01:57:25.227Z,2.92
2019-01-16T02:00:36.200Z,2.27
2019-01-16T02:03:43.591Z,2.20
2019-01-16T02:06:46.123Z,2.25
2019-01-16T02:09:53.256Z,2.47
2019-01-16T02:13:01.167Z,2.20
2019-01-16T02:16:11.888Z,3.00
2019-01-16T02:19:14.158Z,2.55
2019-01-16T02:22:18.988Z,1.95
2019-01-16T02:25:35.339Z,2.83
2019-01-16T02:28:42.217Z,2.50
2019-01-16T02:31:49.868Z,3.20
2019-01-16T02:34:57.256Z,2.75
2019-01-16T02:37:58.254Z,3.62
2019-01-16T02:41:16.402Z,2.08
2019-01-16T02:44:20.458Z,2.33
2019-01-16T02:47:30.929Z,2.60
2019-01-16T02:50:48.054Z,2.37
2019-01-16T02:54:08.498Z,2.70
2019-01-16T02:57:31.503Z,3.55
2019-01-16T03:00:32.240Z,2.62
2019-01-16T03:03:48.852Z,2.12
2019-01-16T03:06:49.596Z,2.40
2019-01-16T03:10:03.127Z,2.35
2019-01-16T03:13:26.127Z,2.45
2019-01-16T03:16:29.167Z,2.45
2019-01-16T03:23:03.154Z,2.95
2019-01-16T03:26:05.948Z,1.70
2019-01-16T03:32:35.318Z,2.27
2019-01-16T03:35:53.967Z,2.17
2019-01-16T03:39:04.942Z,2.80
2019-01-16T03:42:16.177Z,2.60
2019-01-16T03:45:24.598Z,2.70
2019-01-16T03:48:32.239Z,2.80
2019-01-16T03:51:38.865Z,2.20
2019-01-16T03:54:52.403Z,3.65
2019-01-16T03:57:57.234Z,1.90
2019-01-16T04:00:56.436Z,1.60
2019-01-16T04:04:16.110Z,1.92
2019-01-16T04:07:18.899Z,2.08
2019-01-16T04:10:34.991Z,2.55
2019-01-16T04:13:39.124Z,1.77
2019-01-16T04:20:00.534Z,1.92
2019-01-16T04:26:26.032Z,2.58
2019-01-16T04:29:29.715Z,2.15
2019-01-16T04:32:37.237Z,2.10
2019-01-16T04:35:40.270Z,2.85
2019-01-16T04:39:02.768Z,2.80
2019-01-16T04:42:16.308Z,2.90
2019-01-16T04:45:27.036Z,3.65
2019-01-16T04:48:29.810Z,3.08
2019-01-16T04:51:32.859Z,2.95
2019-01-16T04:54:40.244Z,2.47
2019-01-16T04:57:48.142Z,2.40
2019-01-16T05:00:51.440Z,2.30
2019-01-16T05:07:22.606Z,2.37
2019-01-16T05:13:59.918Z,2.27
2019-01-16T05:17:00.911Z,2.45
2019-01-16T05:20:05.389Z,2.10
2019-01-16T05:23:08.275Z,2.98
2019-01-16T05:29:37.405Z,2.92
2019-01-16T05:32:42.735Z,2.40
2019-01-16T05:35:45.775Z,2.00
2019-01-16T05:38:49.072Z,2.75
2019-01-16T05:41:55.694Z,2.10
2019-01-16T05:44:58.479Z,2.12
2019-01-16T05:51:29.136Z,2.15
2019-01-16T05:54:32.175Z,2.40
2019-01-16T05:57:34.960Z,2.60
2019-01-16T06:00:36.722Z,2.12
2019-01-16T06:03:39.759Z,3.00
2019-01-16T06:06:42.806Z,2.20
2019-01-16T06:09:47.926Z,2.20
2019-01-16T06:13:04.513Z,3.00
2019-01-16T06:16:15.214Z,3.02
2019-01-16T06:19:37.712Z,3.30
2019-01-16T06:22:50.992Z,2.17
2019-01-16T06:25:53.775Z,3.65
2019-01-16T06:28:59.890Z,1.95
2019-01-16T06:32:04.724Z,2.37
2019-01-16T06:38:33.585Z,3.37
2019-01-16T06:41:46.261Z,2.72
2019-01-16T06:44:49.900Z,4.17
2019-01-16T06:47:52.687Z,2.65
2019-01-16T06:50:56.751Z,2.62
2019-01-16T06:54:16.433Z,3.90
2019-01-16T06:57:29.196Z,3.90
2019-01-16T07:00:40.429Z,3.37
2019-01-16T07:03:50.377Z,3.00
2019-01-16T07:06:54.694Z,3.95
2019-01-16T07:10:07.370Z,3.75
2019-01-16T07:13:15.116Z,3.42
2019-01-16T07:16:18.150Z,3.12
2019-01-16T07:19:22.474Z,2.00
2019-01-16T07:22:25.770Z,5.00
2019-01-16T07:25:28.551Z,2.42
2019-01-16T07:28:44.648Z,2.85
2019-01-16T07:31:48.454Z,3.27
2019-01-16T07:34:58.920Z,2.95
2019-01-16T07:38:21.929Z,2.65
2019-01-16T07:41:24.710Z,3.83
2019-01-16T07:44:32.365Z,3.77
2019-01-16T07:47:36.677Z,2.60
2019-01-16T07:50:53.542Z,3.00
2019-01-16T07:53:55.316Z,2.77
2019-01-16T07:56:58.855Z,2.95
2019-01-16T08:00:07.527Z,2.95
2019-01-16T08:03:17.478Z,2.98
2019-01-16T08:06:37.160Z,3.05
2019-01-16T08:09:43.019Z,2.20
2019-01-16T08:12:48.359Z,2.50
2019-01-16T08:15:51.146Z,4.62
2019-01-16T08:18:59.058Z,2.87
2019-01-16T08:22:09.511Z,3.00
2019-01-16T08:25:27.165Z,4.40
2019-01-16T08:28:31.209Z,3.72
2019-01-16T08:31:38.086Z,2.70
2019-01-16T08:34:48.307Z,3.50
2019-01-16T08:37:59.276Z,4.00
2019-01-16T08:40:58.217Z,5.70
2019-01-16T08:44:00.744Z,5.62
2019-01-16T08:47:18.119Z,3.42
2019-01-16T08:50:20.647Z,2.90
2019-01-16T08:53:23.174Z,3.12
2019-01-16T08:56:36.455Z,5.08
2019-01-16T08:59:41.545Z,4.15
2019-01-16T09:02:45.863Z,3.35
2019-01-16T09:06:04.524Z,3.42
2019-01-16T09:09:07.311Z,2.95
2019-01-16T09:12:10.088Z,5.67
2019-01-16T09:15:21.322Z,4.40
2019-01-16T09:18:25.128Z,4.58
2019-01-16T09:21:32.266Z,5.42
2019-01-16T09:24:36.841Z,4.85
2019-01-16T09:27:49.871Z,4.35
2019-01-16T09:31:06.222Z,6.53
2019-01-16T09:34:20.521Z,6.25
2019-01-16T09:37:23.311Z,2.52
2019-01-16T09:40:26.093Z,5.50
2019-01-16T09:43:30.667Z,5.12
2019-01-16T09:46:37.033Z,3.35
2019-01-16T09:49:50.057Z,3.50
2019-01-16T09:52:54.124Z,4.60
2019-01-16T09:55:56.914Z,3.85
2019-01-16T09:59:11.210Z,2.90
2019-01-16T10:02:18.352Z,3.37
2019-01-16T10:05:23.430Z,3.37
2019-01-16T10:08:28.775Z,3.42
2019-01-16T10:11:36.185Z,3.35
2019-01-16T10:14:55.600Z,3.80
2019-01-16T10:18:06.568Z,2.60
2019-01-16T10:21:10.631Z,3.20
2019-01-16T10:24:14.952Z,3.80
2019-01-16T10:27:22.603Z,4.58
2019-01-16T10:30:36.651Z,3.50
2019-01-16T10:33:54.282Z,4.08
2019-01-16T10:36:53.231Z,3.80
2019-01-16T10:39:57.546Z,4.97
2019-01-16T10:43:01.621Z,2.58
2019-01-16T10:46:05.932Z,4.15
2019-01-16T10:49:25.878Z,2.75
2019-01-16T10:52:35.818Z,4.35
2019-01-16T10:55:52.169Z,3.52
2019-01-16T10:59:11.079Z,3.95
2019-01-16T11:02:13.355Z,4.62
2019-01-16T11:05:20.492Z,4.03
2019-01-16T11:08:23.275Z,3.80
2019-01-16T11:11:42.510Z,5.22
2019-01-16T11:14:45.230Z,4.90
2019-01-16T11:17:58.249Z,4.30
2019-01-16T11:21:20.492Z,2.85
2019-01-16T11:24:23.019Z,3.45
2019-01-16T11:27:30.153Z,4.47
2019-01-16T11:30:32.679Z,3.83
2019-01-16T11:33:36.744Z,3.30
2019-01-16T11:36:51.561Z,4.47
2019-01-16T11:40:04.682Z,3.52
2019-01-16T11:42:59.187Z,3.12
2019-01-16T11:46:12.714Z,4.05
2019-01-16T11:49:13.197Z,3.40
2019-01-16T11:52:21.609Z,4.22
2019-01-16T11:55:40.521Z,3.77
2019-01-16T11:58:43.303Z,3.92
2019-01-16T12:01:45.847Z,2.35
2019-01-16T12:05:02.695Z,2.87
2019-01-16T12:08:19.816Z,3.10
2019-01-16T12:11:24.137Z,4.25
2019-01-16T12:14:28.457Z,4.00
2019-01-16T12:17:39.688Z,3.72
2019-01-16T12:20:42.998Z,3.12
2019-01-16T12:23:53.703Z,4.17
2019-01-16T12:26:56.749Z,2.77
2019-01-16T12:29:59.272Z,3.22
2019-01-16T12:33:04.915Z,3.77
2019-01-16T12:36:15.338Z,4.37
2019-01-16T12:39:18.673Z,3.80
2019-01-16T12:42:23.978Z,2.30
2019-01-16T12:45:40.586Z,2.72
2019-01-16T12:48:43.371Z,3.60
2019-01-16T12:51:50.256Z,3.37
2019-01-16T12:55:00.213Z,2.40
2019-01-16T12:58:16.551Z,2.77
2019-01-16T13:01:29.578Z,3.40
2019-01-16T13:04:32.616Z,2.83
2019-01-16T13:07:32.079Z,3.58
2019-01-16T13:10:44.597Z,3.45
2019-01-16T13:13:53.514Z,3.35
2019-01-16T13:16:58.091Z,2.85
2019-01-16T13:20:08.296Z,3.75
2019-01-16T13:23:13.144Z,3.35
2019-01-16T13:26:17.706Z,4.58
2019-01-16T13:29:20.752Z,4.67
2019-01-16T13:32:25.355Z,4.62
2019-01-16T13:35:28.104Z,4.00
2019-01-16T13:38:42.919Z,4.80
2019-01-16T13:41:50.573Z,4.33
2019-01-16T13:44:49.515Z,3.30
2019-01-16T13:47:55.116Z,3.25
2019-01-16T13:51:08.667Z,3.65
2019-01-16T13:54:19.112Z,3.30
2019-01-16T13:57:23.713Z,3.27
2019-01-16T14:00:48.486Z,3.85
2019-01-16T14:03:54.344Z,3.33
2019-01-16T14:06:57.146Z,2.92
2019-01-16T14:10:10.662Z,3.00
2019-01-16T14:13:14.988Z,3.65
2019-01-16T14:16:19.302Z,3.35
2019-01-16T14:19:33.098Z,2.98
2019-01-16T14:22:32.299Z,2.80
2019-01-16T14:25:52.742Z,3.33
2019-01-16T14:29:02.956Z,3.75
2019-01-16T14:32:07.272Z,2.17
2019-01-16T14:35:15.689Z,1.92
2019-01-16T14:38:18.474Z,2.55
2019-01-16T14:41:25.404Z,3.33
2019-01-16T14:44:39.685Z,2.27
2019-01-16T14:47:43.984Z,2.83
2019-01-16T14:51:01.357Z,3.37
2019-01-16T14:54:05.930Z,2.72
2019-01-16T14:57:27.151Z,3.08
2019-01-16T15:00:29.929Z,2.75
2019-01-16T15:03:40.139Z,2.60
2019-01-16T15:06:53.418Z,4.28
2019-01-16T15:09:48.824Z,2.98
2019-01-16T15:12:51.565Z,2.72
2019-01-16T15:16:04.838Z,2.10
2019-01-16T15:19:09.163Z,3.25
2019-01-16T15:22:18.860Z,3.35
2019-01-16T15:25:25.264Z,3.08
2019-01-16T15:28:42.604Z,3.15
2019-01-16T15:31:59.479Z,3.58
2019-01-16T15:34:58.023Z,3.08
2019-01-16T15:38:09.389Z,4.25
2019-01-16T15:41:23.195Z,2.40
2019-01-16T15:44:27.239Z,3.95
2019-01-16T15:47:29.779Z,2.50
2019-01-16T15:50:32.816Z,3.20
2019-01-16T15:53:40.970Z,2.80
2019-01-16T15:56:45.287Z,4.05
2019-01-16T15:59:45.006Z,2.47
2019-01-16T16:02:49.324Z,3.15
2019-01-16T16:05:52.340Z,3.80
2019-01-16T16:08:55.418Z,2.37
2019-01-16T16:11:58.700Z,2.72
2019-01-16T16:15:14.025Z,2.50
2019-01-16T16:18:19.886Z,3.77
2019-01-16T16:21:22.663Z,3.50
2019-01-16T16:24:50.028Z,2.87
2019-01-16T16:27:53.073Z,2.65
2019-01-16T16:30:56.620Z,3.83
2019-01-16T16:33:59.911Z,4.00
2019-01-16T16:37:19.339Z,3.80
2019-01-16T16:40:18.224Z,5.90
2019-01-16T16:43:22.602Z,7.92
2019-01-16T16:46:26.665Z,6.70
2019-01-16T16:49:36.618Z,3.80
2019-01-16T16:52:53.227Z,5.05
2019-01-16T16:56:07.024Z,7.20
2019-01-16T16:59:24.653Z,4.70
2019-01-16T17:02:35.890Z,7.97
2019-01-16T17:05:46.861Z,9.08
2019-01-16T17:09:03.222Z,7.53
2019-01-16T17:12:06.503Z,5.12
2019-01-16T17:15:21.063Z,5.78
2019-01-16T17:18:28.462Z,3.87
2019-01-16T17:21:43.587Z,4.80
2019-01-16T17:24:56.821Z,4.80
2019-01-16T17:28:04.479Z,5.45
2019-01-16T17:31:07.510Z,5.80
2019-01-16T17:34:10.537Z,5.60
2019-01-16T17:37:17.246Z,5.58
2019-01-16T17:40:24.307Z,5.50
2019-01-16T17:43:31.433Z,5.40
2019-01-16T17:46:30.381Z,5.50
2019-01-16T17:49:41.621Z,6.35
2019-01-16T17:52:44.648Z,6.03
2019-01-16T17:55:47.449Z,5.10
2019-01-16T17:58:49.969Z,5.00
2019-01-16T18:02:03.246Z,4.00
2019-01-16T18:05:13.195Z,5.50
2019-01-16T18:08:30.822Z,4.55
2019-01-16T18:11:49.737Z,4.92
2019-01-16T18:15:13.515Z,4.42
2019-01-16T18:18:16.299Z,4.92
2019-01-16T18:24:44.394Z,3.70
2019-01-16T18:27:50.774Z,4.15
2019-01-16T18:31:06.087Z,4.85
2019-01-16T18:34:11.439Z,4.65
2019-01-16T18:37:25.745Z,4.75
2019-01-16T18:40:37.483Z,4.47
2019-01-16T18:43:40.272Z,4.35
2019-01-16T18:46:59.950Z,4.78
2019-01-16T18:50:04.271Z,4.00
2019-01-16T18:53:16.009Z,5.55
2019-01-16T18:56:28.796Z,11.38
2019-01-16T18:59:34.388Z,6.75
2019-01-16T19:02:39.226Z,5.50
2019-01-16T19:05:42.762Z,5.83
2019-01-16T19:08:51.707Z,6.03
2019-01-16T19:12:12.150Z,7.83
2019-01-16T19:15:18.023Z,5.28
2019-01-16T19:18:23.858Z,6.10
2019-01-16T19:21:28.430Z,14.00
2019-01-16T19:24:32.266Z,5.42
2019-01-16T19:27:42.960Z,6.62
2019-01-16T19:30:57.809Z,8.05
2019-01-16T19:34:14.646Z,6.30
2019-01-16T19:37:26.903Z,6.62
2019-01-16T19:40:29.683Z,5.80
2019-01-16T19:43:46.285Z,5.42
2019-01-16T19:46:49.843Z,5.75
2019-01-16T19:49:54.417Z,5.30
2019-01-16T19:53:04.824Z,5.08
2019-01-16T19:56:29.162Z,5.40
2019-01-16T19:59:42.696Z,4.87
2019-01-16T20:02:59.316Z,5.30
2019-01-16T20:06:04.140Z,5.08
2019-01-16T20:09:06.683Z,5.10
2019-01-16T20:12:21.229Z,5.25
2019-01-16T20:15:40.912Z,5.95
2019-01-16T20:18:59.308Z,6.05
2019-01-16T20:22:21.040Z,7.67
2019-01-16T20:25:24.845Z,5.30
2019-01-16T20:28:29.420Z,4.83
2019-01-16T20:31:33.760Z,6.05
2019-01-16T20:34:45.520Z,5.97
2019-01-16T20:37:53.918Z,6.03
2019-01-16T20:41:11.921Z,4.10
2019-01-16T20:48:00.231Z,7.50
2019-01-16T20:51:05.454Z,5.87
2019-01-16T20:54:10.057Z,7.78
2019-01-16T20:57:23.564Z,5.55
2019-01-16T21:00:43.253Z,5.53
2019-01-16T21:04:02.412Z,4.72
2019-01-16T21:07:25.166Z,6.12
2019-01-16T21:10:28.199Z,5.12
2019-01-16T21:13:32.520Z,5.97
2019-01-16T21:16:35.305Z,7.37
2019-01-16T21:19:42.958Z,9.85
2019-01-16T21:23:01.612Z,6.15
2019-01-16T21:26:06.455Z,10.65
2019-01-16T21:29:09.482Z,11.57
2019-01-16T21:32:13.801Z,9.33
2019-01-16T21:35:14.536Z,9.48
2019-01-16T21:38:21.417Z,7.10
2019-01-16T21:41:37.514Z,5.47
2019-01-16T21:44:47.981Z,8.03
2019-01-16T21:47:51.031Z,6.28
2019-01-16T21:51:04.555Z,4.17
2019-01-16T21:54:03.501Z,6.20
2019-01-16T21:57:06.286Z,6.28
2019-01-16T22:00:14.697Z,6.12
2019-01-16T22:03:18.343Z,5.58
2019-01-16T22:06:21.548Z,3.62
2019-01-16T22:09:29.198Z,4.72
2019-01-16T22:12:33.772Z,4.15
2019-01-16T22:15:41.675Z,4.80
2019-01-16T22:18:44.712Z,4.55
2019-01-16T22:21:43.918Z,3.72
2019-01-16T22:25:00.266Z,4.62
2019-01-16T22:28:03.063Z,4.42
2019-01-16T22:31:10.439Z,4.08
2019-01-16T22:34:34.740Z,5.67
2019-01-16T22:37:35.980Z,4.85
2019-01-16T22:40:46.195Z,6.20
2019-01-16T22:43:49.499Z,6.30
2019-01-16T22:47:08.395Z,5.08
2019-01-16T22:50:13.993Z,3.12
2019-01-16T22:53:16.522Z,5.85
2019-01-16T22:56:21.101Z,5.70
2019-01-16T22:59:28.750Z,6.10
2019-01-16T23:02:41.033Z,5.92
2019-01-16T23:05:46.092Z,5.78
2019-01-16T23:08:49.954Z,5.83
2019-01-16T23:11:45.481Z,5.33
2019-01-16T23:15:00.139Z,5.42
2019-01-16T23:18:13.133Z,5.42
2019-01-16T23:21:15.626Z,5.50
2019-01-16T23:24:33.003Z,5.62
2019-01-16T23:27:47.305Z,5.97
2019-01-16T23:30:51.369Z,5.78
2019-01-16T23:33:58.508Z,6.55
2019-01-16T23:37:05.143Z,5.47
2019-01-16T23:40:18.411Z,5.67
2019-01-16T23:43:34.504Z,6.53
2019-01-16T23:46:43.950Z,4.80
2019-01-16T23:49:48.008Z,5.65
2019-01-16T23:52:57.960Z,5.53
2019-01-16T23:56:08.432Z,5.17
2019-01-16T23:59:14.282Z,5.35
